Ames, IA (50010)

7:12 AM CDT on July 26, 2017 (GMT -0500)
Ames 15th Street | | Change Station

Elev 915 ft 42.04 °N, 93.62 °W | Updated 3 seconds ago

Clear
Clear
73.0 °F
Feels Like 71 °F
N
0.0
Wind Variable Wind from SSE
Gusts 2.0 mph

Today
High -- | Low -- °F
--% Chance of Precip.
Yesterday
High -- | Low -- °F
Precip. -- in
Pressure 29.97 in
Visibility 7.0 miles
Clouds Clear
Heat Index 71 °F
Dew Point 69 °F
Humidity 88%
Rainfall 0.00 in
Snow Depth Not available.
6:02 AM 8:39 PM
Waxing Crescent, 12% visible
METAR KAMW 261153Z AUTO 13004KT 7SM CLR 22/22 A3000 RMK AO2 SLP147 T02170217 10239 20217 53003
Pressure 29.97 in
Visibility 7.0 miles
Clouds Clear
Heat Index 71 °F
Dew Point 69 °F
Humidity 88%
Rainfall 0.00 in
Snow Depth Not available.
6:02 AM 8:39 PM
Waxing Crescent, 12% visible
METAR KAMW 261153Z AUTO 13004KT 7SM CLR 22/22 A3000 RMK AO2 SLP147 T02170217 10239 20217 53003

Get Severe Weather Alerts

Thanks for signing up!

Be on the lookout for a verification email in your inbox.

You'll start receiving the daily forecast at 6 AM.

×

10-Day Weather Forecast

Almanac

Astronomy

Jul. 26, 2017 Rise Set
Actual Time
Civil Twilight
Nautical Twilight
Astronomical Twilight
Moon
Length of Visible Light
Length of Day
Tomorrow will be .
, % of the Moon is Illuminated

Today's Extremes

State Highs State Lows

Community

WunderPhotos

Category 6

Welcome to Category 6. This is the collective home for Weather Underground's featured writeups by Dr. Jeff Masters (right), Bob Henson (left), Chris Burt, and other regular contributors.

Nearby

Air Quality

  Air Quality AQ Index Pollutant
Not available.

Snow Depth

Station Depth Elevation

Earthquake Activity

City Distance Mag. Time & Date
Minimum magnitude displayed is 2.5.

Coastal Water Temperatures

Place Temperature

Stations

Nearby Weather Stations

Station Location Temp. Windchill Dew Point Humidity Wind Precip. Elev Updated Type
                   

Watches & Warnings

There are currently no watches in effect.